createdAt,value
2023-01-08T00:00:57.472Z,-0.47
2023-01-08T00:02:19.343Z,-0.49
2023-01-08T00:03:41.841Z,-0.49
2023-01-08T00:05:04.738Z,-0.48
2023-01-08T00:06:26.566Z,-0.48
2023-01-08T00:07:48.216Z,-0.47
2023-01-08T00:09:11.073Z,-0.45
2023-01-08T00:10:32.656Z,-0.45
2023-01-08T00:11:54.683Z,-0.45
2023-01-08T00:13:16.590Z,-0.44
2023-01-08T00:14:38.437Z,-0.47
2023-01-08T00:16:07.932Z,-0.50
2023-01-08T00:17:29.721Z,-0.51
2023-01-08T00:18:51.521Z,-0.52
2023-01-08T00:20:13.701Z,-0.53
2023-01-08T00:21:35.326Z,-0.54
2023-01-08T00:22:57.288Z,-0.56
2023-01-08T00:24:20.816Z,-0.57
2023-01-08T00:25:42.851Z,-0.56
2023-01-08T00:27:04.591Z,-0.57
2023-01-08T00:28:26.379Z,-0.60
2023-01-08T00:29:48.596Z,-0.60
2023-01-08T00:31:12.906Z,-0.59
2023-01-08T00:32:34.362Z,-0.59
2023-01-08T00:33:56.573Z,-0.60
2023-01-08T00:35:18.485Z,-0.60
2023-01-08T00:36:40.272Z,-0.65
2023-01-08T00:38:02.095Z,-0.64
2023-01-08T00:39:42.639Z,-0.65
2023-01-08T00:41:05.055Z,-0.73
2023-01-08T00:42:26.604Z,-0.70
2023-01-08T00:43:48.378Z,-0.72
2023-01-08T00:45:11.013Z,-0.71
2023-01-08T00:46:32.721Z,-0.71
2023-01-08T00:47:54.739Z,-0.72
2023-01-08T00:49:16.432Z,-0.72
2023-01-08T00:50:38.448Z,-0.73
2023-01-08T00:52:00.337Z,-0.71
2023-01-08T00:53:25.461Z,-0.73
2023-01-08T00:54:47.175Z,-0.77
2023-01-08T00:56:11.009Z,-0.76
2023-01-08T00:57:37.653Z,-0.77
2023-01-08T00:58:59.342Z,-0.76
2023-01-08T01:00:21.515Z,-0.77
2023-01-08T01:01:43.337Z,-0.75
2023-01-08T01:03:05.552Z,-0.75
2023-01-08T01:04:27.839Z,-0.75
2023-01-08T01:05:50.181Z,-0.77
2023-01-08T01:07:12.135Z,-0.78
2023-01-08T01:08:35.403Z,-0.78
2023-01-08T01:09:57.053Z,-0.76
2023-01-08T01:11:25.177Z,-0.76
2023-01-08T01:12:47.069Z,-0.78
2023-01-08T01:14:09.701Z,-0.79
2023-01-08T01:15:31.634Z,-0.79
2023-01-08T01:16:53.493Z,-0.79
2023-01-08T01:18:15.728Z,-0.79
2023-01-08T01:19:37.531Z,-0.79
2023-01-08T01:20:59.200Z,-0.78
2023-01-08T01:22:20.937Z,-0.78
2023-01-08T01:23:42.848Z,-0.78
2023-01-08T01:25:05.334Z,-0.77
2023-01-08T01:26:27.826Z,-0.81
2023-01-08T01:27:49.735Z,-0.80
2023-01-08T01:29:11.793Z,-0.84
2023-01-08T01:30:33.681Z,-0.83
2023-01-08T01:31:55.435Z,-0.86
2023-01-08T01:33:17.281Z,-0.87
2023-01-08T01:34:39.347Z,-0.87
2023-01-08T01:36:02.876Z,-0.90
2023-01-08T01:37:24.533Z,-0.91
2023-01-08T01:38:47.816Z,-0.91
2023-01-08T01:40:10.395Z,-0.93
2023-01-08T01:41:40.814Z,-0.91
2023-01-08T01:43:05.144Z,-0.95
2023-01-08T01:44:41.390Z,-0.98
2023-01-08T01:46:06.370Z,-1.00
2023-01-08T01:47:38.337Z,-1.01
2023-01-08T01:49:05.635Z,-1.00
2023-01-08T01:50:30.267Z,-1.01
2023-01-08T01:51:55.986Z,-1.00
2023-01-08T01:53:27.374Z,-1.02
2023-01-08T01:54:51.457Z,-1.03
2023-01-08T01:56:13.548Z,-1.04
2023-01-08T01:57:36.567Z,-1.10
2023-01-08T01:58:58.402Z,-1.12
2023-01-08T02:00:20.787Z,-1.11
2023-01-08T02:01:43.597Z,-1.11
2023-01-08T02:03:08.914Z,-1.11
2023-01-08T02:04:30.618Z,-1.10
2023-01-08T02:05:58.490Z,-1.09
2023-01-08T02:07:53.873Z,-1.09
2023-01-08T02:09:30.393Z,-1.10
2023-01-08T02:11:06.010Z,-1.12
2023-01-08T02:12:41.389Z,-1.15
2023-01-08T02:14:12.040Z,-1.14
2023-01-08T02:16:09.409Z,-1.13
2023-01-08T02:17:36.336Z,-1.13
2023-01-08T02:19:06.872Z,-1.14
2023-01-08T02:20:50.953Z,-1.13
2023-01-08T02:22:12.763Z,-1.15
2023-01-08T02:23:58.962Z,-1.16
2023-01-08T02:25:32.789Z,-1.17
2023-01-08T02:26:57.835Z,-1.18
2023-01-08T02:28:21.052Z,-1.19
2023-01-08T02:29:42.932Z,-1.19
2023-01-08T02:31:06.151Z,-1.20
2023-01-08T02:32:32.869Z,-1.25
2023-01-08T02:33:55.029Z,-1.25
2023-01-08T02:35:16.725Z,-1.28
2023-01-08T02:36:40.347Z,-1.28
2023-01-08T02:38:02.242Z,-1.27
2023-01-08T02:39:37.955Z,-1.27
2023-01-08T02:41:09.528Z,-1.29
2023-01-08T02:43:01.738Z,-1.32
2023-01-08T02:44:52.926Z,-1.34
2023-01-08T02:46:23.406Z,-1.36
2023-01-08T02:48:15.054Z,-1.34
2023-01-08T02:49:42.809Z,-1.33
2023-01-08T02:51:04.396Z,-1.33
2023-01-08T02:52:29.738Z,-1.30
2023-01-08T02:53:55.889Z,-1.32
2023-01-08T02:55:20.126Z,-1.31
2023-01-08T02:56:46.430Z,-1.29
2023-01-08T02:58:09.158Z,-1.30
2023-01-08T02:59:33.845Z,-1.35
2023-01-08T03:00:56.537Z,-1.35
2023-01-08T03:02:18.996Z,-1.38
2023-01-08T03:03:45.879Z,-1.36
2023-01-08T03:05:25.252Z,-1.36
2023-01-08T03:06:48.252Z,-1.36
2023-01-08T03:08:11.984Z,-1.38
2023-01-08T03:09:34.543Z,-1.38
2023-01-08T03:11:05.904Z,-1.38
2023-01-08T03:12:55.813Z,-1.42
2023-01-08T03:14:28.423Z,-1.42
2023-01-08T03:15:58.893Z,-1.43
2023-01-08T03:17:39.663Z,-1.48
2023-01-08T03:19:22.330Z,-1.53
2023-01-08T03:20:46.270Z,-1.60
2023-01-08T03:22:12.466Z,-1.62
2023-01-08T03:23:37.408Z,-1.63
2023-01-08T03:25:00.037Z,-1.60
2023-01-08T03:26:26.391Z,-1.60
2023-01-08T03:28:03.013Z,-1.58
2023-01-08T03:29:26.484Z,-1.56
2023-01-08T03:30:50.463Z,-1.59
2023-01-08T03:32:16.411Z,-1.56
2023-01-08T03:33:39.174Z,-1.55
2023-01-08T03:35:03.774Z,-1.53
2023-01-08T03:36:29.409Z,-1.52
2023-01-08T03:38:05.759Z,-1.51
2023-01-08T03:39:35.569Z,-1.48
2023-01-08T03:41:04.654Z,-1.47
2023-01-08T03:42:29.063Z,-1.45
2023-01-08T03:43:51.275Z,-1.46
2023-01-08T03:45:13.475Z,-1.47
2023-01-08T03:46:39.926Z,-1.53
2023-01-08T03:48:04.612Z,-1.52
2023-01-08T03:49:29.395Z,-1.53
2023-01-08T03:50:51.661Z,-1.53
2023-01-08T03:52:28.991Z,-1.54
2023-01-08T03:53:56.374Z,-1.58
2023-01-08T03:55:18.182Z,-1.59
2023-01-08T03:56:39.830Z,-1.61
2023-01-08T03:58:01.650Z,-1.62
2023-01-08T03:59:23.916Z,-1.63
2023-01-08T04:00:45.879Z,-1.67
2023-01-08T04:02:07.871Z,-1.66
2023-01-08T04:03:29.457Z,-1.65
2023-01-08T04:04:51.493Z,-1.66
2023-01-08T04:06:13.288Z,-1.65
2023-01-08T04:07:35.290Z,-1.63
2023-01-08T04:08:56.939Z,-1.67
2023-01-08T04:10:18.864Z,-1.67
2023-01-08T04:11:40.934Z,-1.66
2023-01-08T04:13:02.948Z,-1.66
2023-01-08T04:14:24.651Z,-1.67
2023-01-08T04:15:52.569Z,-1.71
2023-01-08T04:17:14.918Z,-1.70
2023-01-08T04:18:36.821Z,-1.71
2023-01-08T04:19:58.394Z,-1.72
2023-01-08T04:21:20.274Z,-1.72
2023-01-08T04:22:42.102Z,-1.74
2023-01-08T04:24:04.610Z,-1.76
2023-01-08T04:25:26.371Z,-1.74
2023-01-08T04:26:48.922Z,-1.72
2023-01-08T04:28:10.872Z,-1.70
2023-01-08T04:29:32.720Z,-1.73
2023-01-08T04:30:54.751Z,-1.74
2023-01-08T04:32:16.808Z,-1.73
2023-01-08T04:33:38.814Z,-1.76
2023-01-08T04:35:01.179Z,-1.78
2023-01-08T04:36:22.802Z,-1.79
2023-01-08T04:37:44.677Z,-1.77
2023-01-08T04:39:07.659Z,-1.78
2023-01-08T04:40:29.409Z,-1.83
2023-01-08T04:41:51.192Z,-1.81
2023-01-08T04:43:13.220Z,-1.80
2023-01-08T04:44:35.051Z,-1.79
2023-01-08T04:46:02.011Z,-1.77
2023-01-08T04:47:23.617Z,-1.79
2023-01-08T04:48:45.392Z,-1.79
2023-01-08T04:50:07.742Z,-1.80
2023-01-08T04:51:29.860Z,-1.81
2023-01-08T04:52:51.977Z,-1.82
2023-01-08T04:54:13.728Z,-1.83
2023-01-08T04:55:35.443Z,-1.85
2023-01-08T04:56:57.008Z,-1.84
2023-01-08T04:58:18.885Z,-1.83
2023-01-08T04:59:40.575Z,-1.83
2023-01-08T05:01:09.601Z,-1.88
2023-01-08T05:02:31.845Z,-1.85
2023-01-08T05:04:04.621Z,-1.86
2023-01-08T05:05:26.285Z,-1.90
2023-01-08T05:06:48.136Z,-1.88
2023-01-08T05:08:10.180Z,-1.87
2023-01-08T05:09:32.044Z,-1.89
2023-01-08T05:10:53.890Z,-1.90
2023-01-08T05:12:15.730Z,-1.90
2023-01-08T05:13:37.941Z,-1.93
2023-01-08T05:14:59.892Z,-1.92
2023-01-08T05:16:22.654Z,-1.92
2023-01-08T05:17:44.506Z,-1.92
2023-01-08T05:19:06.436Z,-1.91
2023-01-08T05:20:29.172Z,-1.94
2023-01-08T05:21:50.766Z,-1.93
2023-01-08T05:23:12.745Z,-1.94
2023-01-08T05:24:35.049Z,-1.96
2023-01-08T05:26:04.033Z,-1.95
2023-01-08T05:27:25.794Z,-1.97
2023-01-08T05:28:47.732Z,-1.98
2023-01-08T05:30:09.926Z,-1.99
2023-01-08T05:31:31.853Z,-2.01
2023-01-08T05:32:53.974Z,-2.01
2023-01-08T05:34:15.721Z,-2.02
2023-01-08T05:35:40.185Z,-2.04
2023-01-08T05:37:01.833Z,-2.06
2023-01-08T05:38:23.933Z,-2.04
2023-01-08T05:39:45.495Z,-2.03
2023-01-08T05:41:08.427Z,-2.04
2023-01-08T05:42:30.193Z,-2.07
2023-01-08T05:43:51.832Z,-2.04
2023-01-08T05:45:13.591Z,-2.06
2023-01-08T05:46:35.405Z,-2.04
2023-01-08T05:47:57.089Z,-2.05
2023-01-08T05:49:19.887Z,-2.06
2023-01-08T05:50:41.454Z,-2.06
2023-01-08T05:52:03.420Z,-2.04
2023-01-08T05:53:25.357Z,-2.06
2023-01-08T05:54:47.201Z,-2.08
2023-01-08T05:56:11.810Z,-2.07
2023-01-08T05:57:33.533Z,-2.06
2023-01-08T05:58:56.051Z,-2.04
2023-01-08T06:00:17.971Z,-2.03
2023-01-08T06:01:40.165Z,-2.03
2023-01-08T06:03:02.336Z,-2.00
2023-01-08T06:04:24.334Z,-1.99
2023-01-08T06:05:46.407Z,-1.97
2023-01-08T06:07:08.232Z,-1.99
2023-01-08T06:08:31.222Z,-1.98
2023-01-08T06:09:53.221Z,-1.96
2023-01-08T06:11:15.122Z,-1.95
2023-01-08T06:12:36.766Z,-1.93
2023-01-08T06:13:58.539Z,-1.92
2023-01-08T06:15:20.466Z,-1.91
2023-01-08T06:16:44.102Z,-1.93
2023-01-08T06:18:06.114Z,-1.96
2023-01-08T06:19:28.150Z,-1.92
2023-01-08T06:20:49.973Z,-1.93
2023-01-08T06:22:12.099Z,-1.91
2023-01-08T06:23:33.896Z,-1.91
2023-01-08T06:24:55.564Z,-1.89
2023-01-08T06:26:17.475Z,-1.86
2023-01-08T06:27:40.713Z,-1.84
2023-01-08T06:29:02.475Z,-1.82
2023-01-08T06:30:25.309Z,-1.80
2023-01-08T06:31:47.321Z,-1.76
2023-01-08T06:33:09.183Z,-1.76
2023-01-08T06:34:31.121Z,-1.74
2023-01-08T06:35:53.147Z,-1.73
2023-01-08T06:37:15.206Z,-1.68
2023-01-08T06:38:38.422Z,-1.67
2023-01-08T06:40:00.312Z,-1.64
2023-01-08T06:41:22.837Z,-1.60
2023-01-08T06:42:46.407Z,-1.56
2023-01-08T06:44:08.023Z,-1.48
2023-01-08T06:45:29.878Z,-1.42
2023-01-08T06:46:52.497Z,-1.35
2023-01-08T06:48:14.309Z,-1.29
2023-01-08T06:49:35.789Z,-1.21
2023-01-08T06:51:01.089Z,-1.11
2023-01-08T06:52:23.062Z,-1.01
2023-01-08T06:53:47.505Z,-0.89
2023-01-08T06:55:09.660Z,-0.80
2023-01-08T06:56:32.208Z,-0.68
2023-01-08T06:57:56.208Z,-0.55
2023-01-08T06:59:18.200Z,-0.41
2023-01-08T07:00:40.747Z,-0.28
2023-01-08T07:02:02.751Z,-0.13
2023-01-08T07:03:24.629Z,-0.02
2023-01-08T07:04:46.264Z,0.13
2023-01-08T07:06:19.725Z,0.25
2023-01-08T07:07:41.674Z,0.39
2023-01-08T07:09:03.843Z,0.52
2023-01-08T07:10:26.763Z,0.63
2023-01-08T07:11:48.404Z,0.75
2023-01-08T07:13:10.144Z,0.86
2023-01-08T07:14:33.987Z,0.98
2023-01-08T07:15:56.312Z,1.10
2023-01-08T07:17:18.129Z,1.23
2023-01-08T07:18:40.608Z,1.30
2023-01-08T07:20:02.727Z,1.40
2023-01-08T07:21:24.573Z,1.51
2023-01-08T07:22:46.521Z,1.59
2023-01-08T07:24:08.826Z,1.59
2023-01-08T07:25:30.893Z,1.50
2023-01-08T07:26:52.825Z,1.76
2023-01-08T07:28:14.761Z,1.97
2023-01-08T07:29:36.579Z,2.05
2023-01-08T07:31:02.385Z,1.99
2023-01-08T07:32:24.094Z,2.27
2023-01-08T07:33:46.125Z,2.44
2023-01-08T07:35:08.088Z,2.63
2023-01-08T07:36:29.713Z,2.88
2023-01-08T07:37:51.730Z,3.09
2023-01-08T07:39:13.391Z,3.15
2023-01-08T07:40:36.206Z,3.27
2023-01-08T07:41:58.609Z,3.48
2023-01-08T07:43:20.843Z,3.64
2023-01-08T07:44:42.611Z,3.84
2023-01-08T07:46:05.161Z,4.02
2023-01-08T07:47:26.889Z,4.01
2023-01-08T07:48:49.682Z,4.14
2023-01-08T07:50:11.804Z,4.42
2023-01-08T07:51:34.433Z,4.67
2023-01-08T07:53:03.529Z,4.66
2023-01-08T07:54:25.461Z,5.12
2023-01-08T07:55:48.041Z,5.21
2023-01-08T07:57:09.729Z,5.40
2023-01-08T07:58:31.866Z,5.62
2023-01-08T07:59:53.570Z,5.83
2023-01-08T08:01:16.330Z,6.09
2023-01-08T08:02:38.453Z,6.42
2023-01-08T08:04:00.318Z,6.53
2023-01-08T08:05:22.193Z,6.57
2023-01-08T08:06:44.022Z,6.54
2023-01-08T08:08:10.914Z,6.40
2023-01-08T08:09:32.610Z,6.34
2023-01-08T08:10:54.529Z,6.22
2023-01-08T08:12:16.725Z,6.36
2023-01-08T08:13:42.602Z,6.13
2023-01-08T08:15:04.664Z,6.24
2023-01-08T08:16:26.659Z,6.05
2023-01-08T08:17:49.619Z,6.26
2023-01-08T08:19:12.847Z,6.27
2023-01-08T08:20:34.819Z,6.29
2023-01-08T08:21:56.388Z,6.35
2023-01-08T08:23:18.340Z,6.22
2023-01-08T08:24:40.196Z,6.13
2023-01-08T08:26:04.422Z,5.86
2023-01-08T08:27:25.997Z,6.07
2023-01-08T08:28:47.865Z,6.24
2023-01-08T08:30:11.231Z,6.63
2023-01-08T08:31:33.460Z,6.87
2023-01-08T08:32:55.711Z,6.67
2023-01-08T08:34:17.616Z,6.77
2023-01-08T08:35:40.002Z,6.75
2023-01-08T08:37:01.725Z,6.70
2023-01-08T08:38:25.035Z,6.85
2023-01-08T08:39:47.082Z,7.22
2023-01-08T08:41:08.847Z,7.44
2023-01-08T08:42:30.813Z,7.58
2023-01-08T08:43:52.719Z,8.50
2023-01-08T08:45:14.944Z,9.28
2023-01-08T08:46:37.089Z,9.74
2023-01-08T08:47:59.172Z,10.18
2023-01-08T08:49:20.997Z,10.52
2023-01-08T08:50:43.447Z,11.02
2023-01-08T08:52:05.906Z,11.54
2023-01-08T08:53:27.873Z,11.96
2023-01-08T08:54:49.923Z,12.18
2023-01-08T08:56:11.775Z,12.58
2023-01-08T08:57:35.167Z,12.67
2023-01-08T08:58:58.427Z,12.94
2023-01-08T09:00:20.199Z,13.30
2023-01-08T09:01:42.096Z,13.65
2023-01-08T09:03:04.337Z,13.69
2023-01-08T09:04:26.091Z,13.48
2023-01-08T09:05:47.927Z,14.07
2023-01-08T09:07:09.845Z,14.38
2023-01-08T09:08:31.547Z,14.82
2023-01-08T09:09:53.363Z,14.71
2023-01-08T09:11:15.348Z,14.96
2023-01-08T09:12:37.349Z,15.05
2023-01-08T09:13:59.341Z,15.28
2023-01-08T09:15:21.933Z,15.35
2023-01-08T09:16:43.578Z,15.34
2023-01-08T09:18:05.864Z,15.07
2023-01-08T09:19:27.714Z,14.73
2023-01-08T09:20:49.531Z,14.13
2023-01-08T09:22:11.409Z,13.32
2023-01-08T09:23:34.073Z,12.74
2023-01-08T09:24:56.178Z,12.13
2023-01-08T09:26:17.974Z,11.87
2023-01-08T09:27:39.891Z,11.02
2023-01-08T09:29:01.838Z,10.43
2023-01-08T09:30:24.002Z,9.81
2023-01-08T09:31:46.760Z,9.31
2023-01-08T09:33:09.808Z,8.64
2023-01-08T09:34:32.632Z,8.60
2023-01-08T09:35:54.502Z,8.24
2023-01-08T09:37:16.734Z,7.81
2023-01-08T09:38:38.223Z,7.47
2023-01-08T09:40:02.396Z,7.46
2023-01-08T09:41:35.034Z,7.14
2023-01-08T09:43:00.569Z,6.92
2023-01-08T09:44:28.061Z,6.58
2023-01-08T09:45:55.550Z,6.32
2023-01-08T09:47:41.201Z,6.24
2023-01-08T09:49:07.810Z,6.11
2023-01-08T09:50:31.930Z,6.01
2023-01-08T09:51:54.040Z,5.86
2023-01-08T09:53:18.630Z,5.62
2023-01-08T09:54:41.591Z,5.67
2023-01-08T09:56:11.157Z,5.57
2023-01-08T09:57:33.631Z,5.45
2023-01-08T09:58:58.901Z,5.35
2023-01-08T10:00:28.472Z,5.35
2023-01-08T10:01:52.232Z,5.28
2023-01-08T10:03:14.095Z,5.22
2023-01-08T10:04:36.068Z,5.12
2023-01-08T10:05:58.005Z,5.02
2023-01-08T10:07:22.323Z,4.97
2023-01-08T10:10:23.595Z,4.96
2023-01-08T10:11:49.141Z,4.92
2023-01-08T10:13:12.877Z,4.85
2023-01-08T10:14:39.900Z,4.88
2023-01-08T10:16:01.972Z,4.86
2023-01-08T10:17:36.921Z,4.83
2023-01-08T10:19:03.029Z,4.75
2023-01-08T10:20:26.432Z,4.69
2023-01-08T10:21:48.111Z,4.60
2023-01-08T10:23:15.808Z,4.54
2023-01-08T10:24:39.784Z,4.43
2023-01-08T10:26:03.236Z,4.41
2023-01-08T10:27:26.083Z,4.49
2023-01-08T10:28:47.855Z,4.43
2023-01-08T10:30:36.460Z,4.35
2023-01-08T10:31:59.038Z,4.31
2023-01-08T10:33:38.104Z,4.31
2023-01-08T10:35:04.949Z,4.27
2023-01-08T10:36:27.717Z,4.27
2023-01-08T10:37:52.767Z,4.28
2023-01-08T10:39:24.188Z,4.37
2023-01-08T10:40:50.692Z,4.45
2023-01-08T10:42:12.847Z,4.38
2023-01-08T10:43:44.073Z,4.31
2023-01-08T10:45:20.613Z,4.29
2023-01-08T10:46:50.361Z,4.36
2023-01-08T10:48:19.116Z,4.41
2023-01-08T10:49:43.721Z,4.36
2023-01-08T10:51:15.413Z,4.32
2023-01-08T10:52:37.388Z,4.30
2023-01-08T10:54:15.491Z,4.28
2023-01-08T10:55:38.581Z,4.22
2023-01-08T10:57:02.473Z,4.15
2023-01-08T10:58:24.916Z,4.17
2023-01-08T10:59:46.771Z,4.15
2023-01-08T11:01:32.180Z,4.12
2023-01-08T11:02:53.990Z,4.07
2023-01-08T11:04:26.701Z,4.05
2023-01-08T11:05:50.119Z,4.03
2023-01-08T11:07:22.142Z,4.03
2023-01-08T11:08:51.824Z,4.04
2023-01-08T11:10:23.962Z,4.00
2023-01-08T11:11:45.761Z,3.99
2023-01-08T11:13:15.306Z,3.99
2023-01-08T11:14:41.980Z,4.00
2023-01-08T11:16:07.291Z,3.97
2023-01-08T11:17:29.559Z,3.96
2023-01-08T11:18:52.339Z,3.94
2023-01-08T11:20:23.453Z,3.95
2023-01-08T11:22:01.535Z,3.93
2023-01-08T11:23:26.650Z,3.92
2023-01-08T11:24:49.807Z,3.92
2023-01-08T11:26:21.893Z,3.92
2023-01-08T11:27:46.893Z,3.94
2023-01-08T11:29:22.686Z,3.94
2023-01-08T11:30:52.520Z,3.98
2023-01-08T11:32:36.032Z,4.00
2023-01-08T11:34:15.768Z,3.97
2023-01-08T11:35:43.943Z,3.95
2023-01-08T11:37:30.796Z,3.99
2023-01-08T11:38:52.448Z,4.05
2023-01-08T11:40:23.128Z,4.05
2023-01-08T11:42:00.684Z,4.06
2023-01-08T11:43:40.809Z,4.07
2023-01-08T11:45:28.605Z,4.09
2023-01-08T11:47:05.776Z,4.11
2023-01-08T11:48:39.428Z,4.11
2023-01-08T11:50:24.764Z,4.10
2023-01-08T11:52:23.932Z,4.18
2023-01-08T11:53:59.469Z,4.21
2023-01-08T11:55:25.685Z,4.24
2023-01-08T11:57:06.317Z,4.25
2023-01-08T11:59:00.062Z,4.28
2023-01-08T12:00:43.574Z,4.29
2023-01-08T12:02:22.773Z,4.33
2023-01-08T12:04:21.929Z,4.35
2023-01-08T12:06:02.523Z,4.36
2023-01-08T12:07:50.108Z,4.36
2023-01-08T12:09:22.645Z,4.42
2023-01-08T12:10:49.529Z,4.46
2023-01-08T12:12:46.706Z,4.46
2023-01-08T12:14:40.086Z,4.50
2023-01-08T12:16:28.710Z,4.50
2023-01-08T12:18:19.840Z,4.53
2023-01-08T12:20:12.302Z,4.55
2023-01-08T12:21:50.854Z,4.60
2023-01-08T12:23:23.703Z,4.59
2023-01-08T12:25:21.488Z,4.59
2023-01-08T12:26:51.432Z,4.55
2023-01-08T12:28:41.200Z,4.59
2023-01-08T12:30:33.915Z,4.76
2023-01-08T12:32:28.097Z,4.72
2023-01-08T12:34:00.376Z,4.81
2023-01-08T12:35:47.764Z,5.06
2023-01-08T12:37:22.004Z,5.11
2023-01-08T12:38:49.822Z,5.17
2023-01-08T12:40:26.866Z,5.12
2023-01-08T12:41:52.585Z,5.31
2023-01-08T12:43:53.181Z,5.39
2023-01-08T12:45:25.896Z,5.47
2023-01-08T12:46:49.440Z,5.52
2023-01-08T12:48:26.022Z,5.43
2023-01-08T12:50:02.163Z,5.47
2023-01-08T12:51:48.235Z,5.59
2023-01-08T12:53:34.610Z,5.60
2023-01-08T12:55:16.358Z,5.53
2023-01-08T12:57:10.292Z,5.61
2023-01-08T12:58:46.444Z,5.49
2023-01-08T13:00:33.922Z,5.45
2023-01-08T13:02:32.883Z,5.40
2023-01-08T13:03:57.912Z,5.30
2023-01-08T13:05:19.543Z,5.24
2023-01-08T13:07:16.584Z,5.22
2023-01-08T13:08:41.398Z,5.21
2023-01-08T13:10:08.341Z,5.18
2023-01-08T13:11:32.352Z,5.12
2023-01-08T13:12:55.530Z,5.13
2023-01-08T13:14:18.128Z,5.12
2023-01-08T13:15:40.092Z,5.11
2023-01-08T13:17:08.203Z,5.09
2023-01-08T13:18:30.360Z,5.12
2023-01-08T13:19:55.809Z,5.16
2023-01-08T13:21:18.029Z,5.13
2023-01-08T13:22:54.848Z,5.13
2023-01-08T13:24:28.837Z,5.11
2023-01-08T13:25:55.695Z,5.17
2023-01-08T13:27:17.369Z,5.16
2023-01-08T13:28:43.520Z,5.21
2023-01-08T13:30:25.286Z,5.42
2023-01-08T13:31:47.129Z,5.39
2023-01-08T13:33:29.849Z,5.33
2023-01-08T13:35:17.008Z,5.29
2023-01-08T13:36:39.168Z,5.25
2023-01-08T13:38:18.636Z,5.29
2023-01-08T13:39:40.662Z,5.44
2023-01-08T13:41:02.532Z,5.43
2023-01-08T13:42:28.768Z,5.54
2023-01-08T13:43:57.863Z,5.60
2023-01-08T13:45:19.609Z,5.62
2023-01-08T13:46:41.861Z,5.62
2023-01-08T13:48:04.221Z,5.64
2023-01-08T13:49:33.969Z,5.64
2023-01-08T13:50:55.950Z,5.67
2023-01-08T13:52:48.007Z,5.63
2023-01-08T13:54:13.054Z,5.60
2023-01-08T13:55:41.911Z,5.59
2023-01-08T13:57:16.377Z,5.57
2023-01-08T13:58:46.734Z,5.54
2023-01-08T14:00:18.487Z,5.49
2023-01-08T14:01:40.439Z,5.46
2023-01-08T14:03:02.437Z,5.45
2023-01-08T14:04:25.789Z,5.39
2023-01-08T14:05:47.532Z,5.33
2023-01-08T14:07:14.741Z,5.26
2023-01-08T14:08:36.693Z,5.19
2023-01-08T14:10:13.235Z,5.12
2023-01-08T14:11:46.561Z,5.04
2023-01-08T14:13:09.528Z,4.97
2023-01-08T14:14:31.503Z,4.96
2023-01-08T14:15:54.480Z,4.89
2023-01-08T14:17:18.047Z,4.85
2023-01-08T14:18:46.913Z,4.80
2023-01-08T14:20:24.544Z,4.74
2023-01-08T14:22:03.965Z,4.69
2023-01-08T14:23:30.507Z,4.65
2023-01-08T14:25:08.678Z,4.59
2023-01-08T14:26:36.125Z,4.53
2023-01-08T14:28:04.004Z,4.49
2023-01-08T14:29:30.942Z,4.44
2023-01-08T14:30:57.295Z,4.39
2023-01-08T14:32:22.287Z,4.34
2023-01-08T14:33:44.967Z,4.30
2023-01-08T14:35:09.430Z,4.25
2023-01-08T14:36:31.732Z,4.20
2023-01-08T14:37:53.899Z,4.18
2023-01-08T14:39:31.470Z,4.11
2023-01-08T14:41:03.886Z,4.05
2023-01-08T14:42:44.240Z,4.02
2023-01-08T14:44:06.360Z,3.97
2023-01-08T14:45:31.758Z,3.93
2023-01-08T14:46:54.916Z,3.90
2023-01-08T14:48:40.689Z,3.86
2023-01-08T14:50:02.598Z,3.81
2023-01-08T14:51:30.729Z,3.79
2023-01-08T14:52:55.608Z,3.75
2023-01-08T14:54:30.401Z,3.69
2023-01-08T14:55:54.250Z,3.65
2023-01-08T14:57:17.491Z,3.61
2023-01-08T14:58:43.218Z,3.58
2023-01-08T15:00:05.856Z,3.53
2023-01-08T15:01:30.529Z,3.51
2023-01-08T15:02:52.916Z,3.49
2023-01-08T15:04:19.335Z,3.46
2023-01-08T15:05:49.977Z,3.43
2023-01-08T15:07:27.732Z,3.40
2023-01-08T15:08:49.302Z,3.35
2023-01-08T15:10:42.801Z,3.32
2023-01-08T15:12:22.917Z,3.27
2023-01-08T15:13:45.375Z,3.23
2023-01-08T15:15:12.170Z,3.19
2023-01-08T15:16:39.246Z,3.17
2023-01-08T15:18:01.389Z,3.13
2023-01-08T15:19:25.596Z,3.09
2023-01-08T15:20:47.484Z,3.07
2023-01-08T15:22:19.825Z,3.03
2023-01-08T15:23:46.457Z,3.00
2023-01-08T15:25:16.035Z,2.97
2023-01-08T15:26:43.018Z,2.94
2023-01-08T15:28:05.538Z,2.91
2023-01-08T15:29:33.241Z,2.89
2023-01-08T15:30:57.111Z,2.86
2023-01-08T15:32:21.728Z,2.83
2023-01-08T15:33:45.646Z,2.81
2023-01-08T15:35:18.715Z,2.78
2023-01-08T15:36:40.549Z,2.74
2023-01-08T15:38:02.699Z,2.71
2023-01-08T15:39:24.762Z,2.69
2023-01-08T15:40:47.270Z,2.66
2023-01-08T15:42:30.759Z,2.64
2023-01-08T15:43:52.713Z,2.61
2023-01-08T15:45:17.257Z,2.58
2023-01-08T15:46:39.105Z,2.57
2023-01-08T15:48:01.123Z,2.53
2023-01-08T15:49:22.777Z,2.52
2023-01-08T15:50:45.666Z,2.51
2023-01-08T15:52:09.710Z,2.49
2023-01-08T15:53:31.391Z,2.47
2023-01-08T15:54:53.180Z,2.46
2023-01-08T15:56:15.133Z,2.43
2023-01-08T15:57:37.788Z,2.42
2023-01-08T15:59:00.260Z,2.41
2023-01-08T16:00:22.952Z,2.38
2023-01-08T16:01:44.853Z,2.37
2023-01-08T16:03:09.589Z,2.35
2023-01-08T16:04:31.261Z,2.33
2023-01-08T16:05:53.201Z,2.31
2023-01-08T16:07:14.946Z,2.29
2023-01-08T16:08:37.321Z,2.26
2023-01-08T16:09:58.993Z,2.24
2023-01-08T16:11:21.024Z,2.21
2023-01-08T16:12:46.041Z,2.19
2023-01-08T16:14:07.734Z,2.16
2023-01-08T16:15:31.020Z,2.13
2023-01-08T16:16:52.909Z,2.11
2023-01-08T16:18:14.609Z,2.08
2023-01-08T16:19:36.072Z,2.07
2023-01-08T16:21:01.622Z,2.05
2023-01-08T16:22:23.581Z,2.03
2023-01-08T16:23:45.280Z,2.01
2023-01-08T16:25:08.071Z,2.00
2023-01-08T16:26:30.313Z,1.99
2023-01-08T16:27:52.364Z,1.96
2023-01-08T16:29:14.598Z,1.94
2023-01-08T16:30:36.638Z,1.91
2023-01-08T16:31:58.257Z,1.91
2023-01-08T16:33:20.077Z,1.89
2023-01-08T16:34:42.094Z,1.88
2023-01-08T16:36:06.632Z,1.86
2023-01-08T16:37:28.516Z,1.84
2023-01-08T16:38:50.531Z,1.84
2023-01-08T16:40:13.498Z,1.82
2023-01-08T16:41:36.887Z,1.82
2023-01-08T16:43:04.168Z,1.80
2023-01-08T16:44:32.481Z,1.81
2023-01-08T16:45:55.274Z,1.80
2023-01-08T16:47:16.897Z,1.78
2023-01-08T16:48:38.859Z,1.77
2023-01-08T16:50:00.862Z,1.75
2023-01-08T16:51:25.289Z,1.73
2023-01-08T16:52:47.190Z,1.73
2023-01-08T16:54:11.638Z,1.72
2023-01-08T16:55:33.842Z,1.70
2023-01-08T16:56:55.822Z,1.68
2023-01-08T16:58:17.582Z,1.68
2023-01-08T16:59:39.569Z,1.67
2023-01-08T17:01:03.650Z,1.67
2023-01-08T17:02:26.047Z,1.65
2023-01-08T17:03:47.888Z,1.64
2023-01-08T17:05:10.007Z,1.62
2023-01-08T17:06:31.868Z,1.60
2023-01-08T17:07:55.004Z,1.60
2023-01-08T17:09:16.639Z,1.58
2023-01-08T17:10:40.029Z,1.58
2023-01-08T17:12:02.303Z,1.58
2023-01-08T17:13:24.112Z,1.56
2023-01-08T17:14:47.186Z,1.55
2023-01-08T17:16:12.179Z,1.55
2023-01-08T17:17:33.942Z,1.54
2023-01-08T17:18:57.170Z,1.53
2023-01-08T17:20:20.105Z,1.53
2023-01-08T17:21:41.947Z,1.51
2023-01-08T17:23:03.668Z,1.49
2023-01-08T17:24:25.523Z,1.48
2023-01-08T17:25:47.428Z,1.47
2023-01-08T17:27:11.335Z,1.46
2023-01-08T17:28:35.055Z,1.44
2023-01-08T17:29:57.031Z,1.43
2023-01-08T17:31:20.239Z,1.41
2023-01-08T17:32:42.558Z,1.41
2023-01-08T17:34:04.253Z,1.41
2023-01-08T17:35:26.088Z,1.40
2023-01-08T17:36:48.190Z,1.38
2023-01-08T17:38:10.712Z,1.35
2023-01-08T17:39:32.847Z,1.35
2023-01-08T17:40:54.545Z,1.33
2023-01-08T17:42:25.318Z,1.34
2023-01-08T17:43:47.032Z,1.32
2023-01-08T17:45:09.631Z,1.30
2023-01-08T17:46:31.654Z,1.28
2023-01-08T17:47:53.401Z,1.27
2023-01-08T17:49:16.843Z,1.26
2023-01-08T17:50:41.945Z,1.23
2023-01-08T17:52:04.231Z,1.22
2023-01-08T17:53:26.426Z,1.23
2023-01-08T17:54:52.694Z,1.18
2023-01-08T17:56:14.421Z,1.18
2023-01-08T17:57:36.569Z,1.19
2023-01-08T17:58:58.239Z,1.18
2023-01-08T18:00:20.640Z,1.19
2023-01-08T18:01:42.730Z,1.17
2023-01-08T18:03:04.810Z,1.14
2023-01-08T18:04:27.061Z,1.14
2023-01-08T18:05:48.626Z,1.13
2023-01-08T18:07:10.424Z,1.13
2023-01-08T18:08:32.485Z,1.08
2023-01-08T18:09:54.525Z,1.08
2023-01-08T18:11:16.176Z,1.07
2023-01-08T18:12:38.008Z,1.05
2023-01-08T18:14:02.369Z,1.03
2023-01-08T18:15:23.920Z,1.01
2023-01-08T18:16:45.973Z,1.00
2023-01-08T18:18:07.871Z,1.00
2023-01-08T18:19:29.956Z,0.97
2023-01-08T18:20:54.489Z,0.96
2023-01-08T18:22:15.990Z,0.95
2023-01-08T18:23:37.890Z,0.92
2023-01-08T18:24:59.726Z,0.92
2023-01-08T18:26:22.690Z,0.91
2023-01-08T18:27:44.593Z,0.89
2023-01-08T18:29:06.951Z,0.88
2023-01-08T18:30:30.851Z,0.88
2023-01-08T18:31:53.144Z,0.89
2023-01-08T18:33:15.494Z,0.88
2023-01-08T18:34:38.758Z,0.87
2023-01-08T18:36:09.525Z,0.87
2023-01-08T18:37:33.418Z,0.87
2023-01-08T18:38:57.531Z,0.85
2023-01-08T18:40:19.388Z,0.85
2023-01-08T18:41:59.471Z,0.84
2023-01-08T18:43:21.116Z,0.85
2023-01-08T18:44:42.751Z,0.85
2023-01-08T18:46:07.458Z,0.82
2023-01-08T18:47:29.517Z,0.81
2023-01-08T18:48:53.642Z,0.78